createdAt,value
2022-10-14T00:00:47.621Z,60.62
2022-10-14T00:03:16.554Z,60.86
2022-10-14T00:05:49.431Z,60.81
2022-10-14T00:08:18.608Z,60.97
2022-10-14T00:10:47.173Z,60.46
2022-10-14T00:13:17.138Z,60.85
2022-10-14T00:15:54.905Z,60.90
2022-10-14T00:18:27.068Z,61.08
2022-10-14T00:21:00.236Z,61.14
2022-10-14T00:23:30.248Z,60.96
2022-10-14T00:26:28.401Z,60.91
2022-10-14T00:29:00.418Z,60.91
2022-10-14T00:31:36.881Z,60.90
2022-10-14T00:34:07.454Z,60.87
2022-10-14T00:36:43.967Z,60.75
2022-10-14T00:39:56.867Z,60.72
2022-10-14T00:42:27.742Z,60.81
2022-10-14T00:45:06.446Z,60.81
2022-10-14T00:48:33.654Z,60.88
2022-10-14T00:51:04.009Z,60.83
2022-10-14T00:54:43.070Z,60.91
2022-10-14T00:57:13.250Z,61.26
2022-10-14T00:59:42.184Z,61.27
2022-10-14T01:02:11.429Z,61.08
2022-10-14T01:04:53.290Z,61.06
2022-10-14T01:07:30.674Z,61.00
2022-10-14T01:10:04.516Z,61.12
2022-10-14T01:12:56.110Z,61.05
2022-10-14T01:15:32.698Z,61.09
2022-10-14T01:18:24.428Z,61.01
2022-10-14T01:21:14.916Z,61.01
2022-10-14T01:24:38.681Z,60.88
2022-10-14T01:27:20.157Z,60.98
2022-10-14T01:30:12.768Z,61.08
2022-10-14T01:32:50.838Z,61.21
2022-10-14T01:35:30.020Z,61.23
2022-10-14T01:38:06.829Z,61.18
2022-10-14T01:40:38.383Z,61.15
2022-10-14T01:43:08.403Z,61.06
2022-10-14T01:45:39.475Z,60.95
2022-10-14T01:48:08.222Z,61.09
2022-10-14T01:50:55.233Z,60.87
2022-10-14T01:53:30.001Z,60.97
2022-10-14T01:56:03.094Z,60.88
2022-10-14T01:58:36.174Z,61.07
2022-10-14T02:01:08.947Z,61.10
2022-10-14T02:03:44.521Z,61.03
2022-10-14T02:06:18.089Z,61.23
2022-10-14T02:09:05.677Z,61.23
2022-10-14T02:11:42.473Z,61.20
2022-10-14T02:14:21.371Z,60.94
2022-10-14T02:17:04.680Z,61.29
2022-10-14T02:19:41.017Z,61.18
2022-10-14T02:22:17.772Z,61.09
2022-10-14T02:24:53.454Z,61.33
2022-10-14T02:27:22.150Z,61.17
2022-10-14T02:29:53.005Z,61.22
2022-10-14T02:32:25.236Z,60.98
2022-10-14T02:34:57.776Z,60.98
2022-10-14T02:37:27.645Z,60.99
2022-10-14T02:40:08.122Z,61.23
2022-10-14T02:42:41.527Z,61.11
2022-10-14T02:45:14.061Z,61.04
2022-10-14T02:47:52.743Z,61.14
2022-10-14T02:50:27.976Z,61.39
2022-10-14T02:52:57.242Z,61.68
2022-10-14T02:55:25.882Z,61.59
2022-10-14T02:57:55.905Z,61.87
2022-10-14T03:00:26.142Z,62.09
2022-10-14T03:03:11.796Z,62.39
2022-10-14T03:05:53.442Z,62.65
2022-10-14T03:08:25.401Z,63.03
2022-10-14T03:11:01.521Z,62.83
2022-10-14T03:13:31.248Z,63.07
2022-10-14T03:16:01.584Z,62.99
2022-10-14T03:18:34.106Z,63.20
2022-10-14T03:21:13.636Z,63.42
2022-10-14T03:23:46.181Z,63.43
2022-10-14T03:26:16.854Z,63.51
2022-10-14T03:28:50.571Z,63.69
2022-10-14T03:31:30.322Z,63.55
2022-10-14T03:34:30.420Z,63.57
2022-10-14T03:37:14.888Z,63.71
2022-10-14T03:39:54.460Z,63.81
2022-10-14T03:42:27.445Z,63.76
2022-10-14T03:45:06.138Z,63.86
2022-10-14T03:47:40.805Z,64.06
2022-10-14T03:50:15.334Z,63.88
2022-10-14T03:53:04.067Z,63.73
2022-10-14T03:55:41.047Z,63.52
2022-10-14T03:58:13.850Z,63.59
2022-10-14T04:00:50.819Z,63.43
2022-10-14T04:03:46.791Z,63.08
2022-10-14T04:06:16.939Z,63.02
2022-10-14T04:08:46.635Z,63.11
2022-10-14T04:11:25.133Z,63.05
2022-10-14T04:14:00.067Z,63.09
2022-10-14T04:16:31.577Z,63.02
2022-10-14T04:19:12.921Z,62.93
2022-10-14T04:21:46.631Z,62.79
2022-10-14T04:24:21.154Z,62.79
2022-10-14T04:26:58.822Z,62.81
2022-10-14T04:29:49.956Z,62.75
2022-10-14T04:32:30.396Z,62.68
2022-10-14T04:35:01.435Z,62.63
2022-10-14T04:37:35.287Z,62.75
2022-10-14T04:40:17.713Z,62.71
2022-10-14T04:42:50.719Z,62.87
2022-10-14T04:45:25.376Z,62.92
2022-10-14T04:48:06.013Z,62.94
2022-10-14T04:50:48.114Z,63.19
2022-10-14T04:53:48.555Z,63.24
2022-10-14T04:56:38.046Z,63.06
2022-10-14T04:59:11.690Z,63.10
2022-10-14T05:02:18.383Z,63.08
2022-10-14T05:05:12.457Z,62.93
2022-10-14T05:07:46.066Z,63.08
2022-10-14T05:10:32.274Z,63.06
2022-10-14T05:13:06.023Z,63.11
2022-10-14T05:15:39.227Z,62.98
2022-10-14T05:18:21.768Z,63.07
2022-10-14T05:21:26.143Z,63.01
2022-10-14T05:24:01.447Z,63.07
2022-10-14T05:26:35.220Z,63.23
2022-10-14T05:29:11.663Z,63.16
2022-10-14T05:31:57.795Z,63.55
2022-10-14T05:34:46.452Z,63.69
2022-10-14T05:37:29.065Z,63.96
2022-10-14T05:40:04.274Z,64.00
2022-10-14T05:42:38.241Z,64.00
2022-10-14T05:45:14.699Z,63.92
2022-10-14T05:47:49.984Z,63.91
2022-10-14T05:50:22.296Z,64.19
2022-10-14T05:52:55.185Z,64.02
2022-10-14T05:55:32.185Z,64.26
2022-10-14T05:58:09.810Z,64.41
2022-10-14T06:00:43.922Z,64.29
2022-10-14T06:03:20.642Z,64.19
2022-10-14T06:06:02.322Z,64.46
2022-10-14T06:08:33.194Z,64.45
2022-10-14T06:11:04.591Z,64.64
2022-10-14T06:13:58.930Z,64.88
2022-10-14T06:16:29.777Z,64.91
2022-10-14T06:19:01.346Z,64.83
2022-10-14T06:21:30.758Z,64.68
2022-10-14T06:23:59.008Z,64.70
2022-10-14T06:26:30.037Z,64.99
2022-10-14T06:29:07.455Z,64.91
2022-10-14T06:31:48.949Z,64.92
2022-10-14T06:34:22.818Z,65.34
2022-10-14T06:37:02.046Z,65.36
2022-10-14T06:42:38.637Z,65.61
2022-10-14T06:45:24.523Z,65.82
2022-10-14T06:47:54.724Z,65.83
2022-10-14T06:50:42.245Z,65.79
2022-10-14T06:53:19.131Z,65.74
2022-10-14T06:55:55.185Z,65.74
2022-10-14T06:58:33.798Z,65.94
2022-10-14T07:01:19.810Z,65.84
2022-10-14T07:03:52.887Z,65.93
2022-10-14T07:06:29.723Z,65.60
2022-10-14T07:08:59.935Z,65.67
2022-10-14T07:11:33.407Z,65.48
2022-10-14T07:14:05.059Z,65.80
2022-10-14T07:17:05.952Z,65.61
2022-10-14T07:19:40.245Z,66.10
2022-10-14T07:22:18.363Z,65.60
2022-10-14T07:25:04.048Z,65.64
2022-10-14T07:27:39.033Z,65.79
2022-10-14T07:30:19.893Z,65.91
2022-10-14T07:36:20.056Z,65.74
2022-10-14T07:39:04.660Z,65.97
2022-10-14T07:42:01.796Z,65.70
2022-10-14T07:44:36.805Z,65.89
2022-10-14T07:47:10.329Z,65.73
2022-10-14T07:49:41.508Z,65.84
2022-10-14T07:52:10.635Z,65.59
2022-10-14T07:54:50.921Z,65.70
2022-10-14T07:57:26.168Z,65.50
2022-10-14T08:00:01.442Z,65.41
2022-10-14T08:02:44.956Z,65.35
2022-10-14T08:05:39.017Z,65.33
2022-10-14T08:08:13.077Z,65.25
2022-10-14T08:10:44.444Z,65.35
2022-10-14T08:13:13.355Z,65.41
2022-10-14T08:15:56.570Z,65.26
2022-10-14T08:18:34.092Z,65.24
2022-10-14T08:21:05.452Z,65.29
2022-10-14T08:23:38.941Z,65.17
2022-10-14T08:26:20.847Z,65.19
2022-10-14T08:28:53.157Z,65.39
2022-10-14T08:31:28.721Z,65.11
2022-10-14T08:34:04.378Z,65.41
2022-10-14T08:36:38.180Z,65.46
2022-10-14T08:39:20.243Z,65.31
2022-10-14T08:42:22.012Z,65.35
2022-10-14T08:44:59.188Z,65.26
2022-10-14T08:47:34.105Z,65.32
2022-10-14T08:50:13.829Z,65.19
2022-10-14T08:52:49.122Z,65.03
2022-10-14T08:55:25.240Z,65.20
2022-10-14T08:58:11.452Z,65.09
2022-10-14T09:00:52.315Z,65.12
2022-10-14T09:03:22.979Z,65.12
2022-10-14T09:06:14.301Z,65.18
2022-10-14T09:08:46.648Z,65.10
2022-10-14T09:11:20.423Z,64.92
2022-10-14T09:13:51.157Z,65.23
2022-10-14T09:16:25.998Z,65.27
2022-10-14T09:19:14.055Z,65.32
2022-10-14T09:21:58.268Z,65.09
2022-10-14T09:24:38.320Z,65.12
2022-10-14T09:27:15.730Z,64.92
2022-10-14T09:29:47.152Z,64.88
2022-10-14T09:32:20.515Z,64.98
2022-10-14T09:37:39.685Z,64.71
2022-10-14T09:40:16.130Z,64.42
2022-10-14T09:42:49.841Z,64.61
2022-10-14T09:45:21.428Z,64.63
2022-10-14T09:48:00.360Z,64.55
2022-10-14T09:50:47.266Z,64.77
2022-10-14T09:53:19.209Z,64.48
2022-10-14T09:56:12.533Z,64.60
2022-10-14T09:58:55.289Z,64.44
2022-10-14T10:01:28.088Z,64.29
2022-10-14T10:03:58.258Z,64.27
2022-10-14T10:06:30.655Z,64.12
2022-10-14T10:09:00.636Z,64.15
2022-10-14T10:11:36.199Z,64.34
2022-10-14T10:14:45.495Z,64.62
2022-10-14T10:20:52.531Z,64.16
2022-10-14T10:23:31.631Z,64.28
2022-10-14T10:29:40.844Z,64.16
2022-10-14T10:32:52.169Z,64.13
2022-10-14T10:45:55.296Z,63.32
2022-10-14T10:49:09.974Z,62.22
2022-10-14T10:55:56.647Z,61.68
2022-10-14T10:59:25.439Z,60.74
2022-10-14T11:02:27.476Z,60.25
2022-10-14T11:19:35.648Z,60.40
2022-10-14T11:23:23.795Z,59.57
2022-10-14T11:26:30.388Z,59.20
2022-10-14T11:29:07.321Z,58.51
2022-10-14T11:45:48.029Z,58.99
2022-10-14T11:48:38.319Z,58.97
2022-10-14T11:52:10.938Z,58.00
2022-10-14T12:08:41.041Z,54.03
2022-10-14T12:11:31.291Z,53.87
2022-10-14T12:14:08.274Z,54.41
2022-10-14T12:16:48.761Z,55.35
2022-10-14T12:19:26.542Z,54.43
2022-10-14T12:35:04.097Z,54.43
2022-10-14T12:38:28.492Z,53.08
2022-10-14T12:41:56.520Z,51.74
2022-10-14T12:52:40.189Z,49.91
2022-10-14T12:56:23.921Z,50.58
2022-10-14T12:59:54.543Z,49.72
2022-10-14T13:02:45.148Z,50.54
2022-10-14T13:05:30.159Z,50.61
2022-10-14T13:09:05.009Z,51.01
2022-10-14T13:11:59.095Z,51.79
2022-10-14T13:19:21.455Z,52.21
2022-10-14T13:29:12.845Z,52.71
2022-10-14T13:31:54.167Z,52.71
2022-10-14T13:35:00.835Z,52.60
2022-10-14T13:37:57.574Z,53.37
2022-10-14T13:45:41.153Z,52.92
2022-10-14T13:49:02.527Z,53.54
2022-10-14T13:55:35.289Z,53.42
2022-10-14T13:58:49.909Z,53.02
2022-10-14T14:04:47.297Z,53.05
2022-10-14T14:08:14.126Z,53.24
2022-10-14T14:24:34.480Z,53.96
2022-10-14T14:39:22.033Z,54.46
2022-10-14T14:57:36.304Z,54.08
2022-10-14T15:00:37.651Z,54.58
2022-10-14T15:10:42.439Z,54.67
2022-10-14T15:13:53.249Z,54.89
2022-10-14T15:21:18.748Z,54.38
2022-10-14T15:24:03.845Z,54.31
2022-10-14T15:30:36.278Z,54.31
2022-10-14T15:36:55.450Z,53.40
2022-10-14T15:40:36.349Z,53.56
2022-10-14T15:46:54.386Z,53.84
2022-10-14T16:00:20.242Z,53.85
2022-10-14T16:04:07.713Z,53.96
2022-10-14T16:28:24.988Z,54.94
2022-10-14T16:31:09.286Z,54.88
2022-10-14T16:42:03.483Z,54.67
2022-10-14T16:45:24.373Z,54.52
2022-10-14T16:47:59.947Z,54.69
2022-10-14T16:54:15.554Z,54.87
2022-10-14T16:56:58.957Z,54.54
2022-10-14T16:59:31.191Z,54.53
2022-10-14T17:02:19.568Z,54.52
2022-10-14T17:04:52.513Z,54.71
2022-10-14T17:07:23.216Z,54.83
2022-10-14T17:10:03.094Z,55.09
2022-10-14T17:12:51.910Z,55.32
2022-10-14T17:15:25.074Z,55.23
2022-10-14T17:17:57.890Z,55.35
2022-10-14T17:20:48.688Z,55.49
2022-10-14T17:23:40.390Z,55.44
2022-10-14T17:26:21.210Z,55.68
2022-10-14T17:29:37.920Z,55.49
2022-10-14T17:35:58.368Z,55.74
2022-10-14T17:41:22.179Z,55.89
2022-10-14T17:43:57.310Z,55.99
2022-10-14T17:46:27.455Z,56.16
2022-10-14T17:49:00.669Z,55.91
2022-10-14T17:51:33.411Z,56.21
2022-10-14T17:54:23.751Z,56.28
2022-10-14T17:56:59.526Z,56.27
2022-10-14T17:59:34.158Z,56.28
2022-10-14T18:02:07.690Z,56.24
2022-10-14T18:04:37.869Z,56.25
2022-10-14T18:07:11.666Z,56.33
2022-10-14T18:10:05.876Z,56.40
2022-10-14T18:12:34.921Z,56.42
2022-10-14T18:15:13.201Z,56.47
2022-10-14T18:18:08.636Z,56.56
2022-10-14T18:20:48.716Z,56.64
2022-10-14T18:23:20.320Z,56.59
2022-10-14T18:26:15.863Z,56.57
2022-10-14T18:31:34.269Z,56.95
2022-10-14T18:34:18.762Z,57.03
2022-10-14T18:36:58.756Z,57.22
2022-10-14T18:39:31.090Z,57.18
2022-10-14T18:42:07.183Z,57.44
2022-10-14T18:44:43.267Z,57.40
2022-10-14T18:47:12.561Z,57.47
2022-10-14T18:49:48.107Z,57.51
2022-10-14T18:52:31.176Z,57.67
2022-10-14T18:55:04.639Z,57.68
2022-10-14T18:57:38.376Z,57.86
2022-10-14T19:00:21.545Z,57.88
2022-10-14T19:02:59.463Z,57.75
2022-10-14T19:06:02.340Z,57.83
2022-10-14T19:12:34.888Z,57.79
2022-10-14T19:15:51.396Z,57.77
2022-10-14T19:18:56.015Z,57.67
2022-10-14T19:21:29.493Z,57.76
2022-10-14T19:24:08.859Z,57.89
2022-10-14T19:26:40.785Z,57.94
2022-10-14T19:29:29.438Z,57.97
2022-10-14T19:32:13.202Z,57.89
2022-10-14T19:34:56.534Z,58.06
2022-10-14T19:37:56.794Z,58.43
2022-10-14T19:40:32.426Z,58.12
2022-10-14T19:43:25.465Z,58.12
2022-10-14T19:45:55.860Z,57.91
2022-10-14T19:48:26.978Z,58.12
2022-10-14T19:51:01.911Z,58.05
2022-10-14T19:53:38.262Z,58.11
2022-10-14T19:56:09.208Z,58.22
2022-10-14T19:59:06.358Z,58.03
2022-10-14T20:01:58.214Z,58.20
2022-10-14T20:04:33.594Z,58.27
2022-10-14T20:07:06.531Z,58.11
2022-10-14T20:09:40.962Z,58.14
2022-10-14T20:15:27.488Z,58.32
2022-10-14T20:18:32.013Z,58.28
2022-10-14T20:22:09.151Z,58.37
2022-10-14T20:25:15.770Z,58.45
2022-10-14T20:30:41.049Z,58.46
2022-10-14T20:33:29.369Z,58.46
2022-10-14T20:36:03.766Z,58.72
2022-10-14T20:38:37.560Z,59.01
2022-10-14T20:41:11.740Z,58.94
2022-10-14T20:43:44.037Z,58.89
2022-10-14T20:46:21.027Z,58.78
2022-10-14T20:48:56.308Z,58.87
2022-10-14T20:54:48.004Z,58.94
2022-10-14T20:57:23.123Z,59.01
2022-10-14T20:59:56.729Z,58.95
2022-10-14T21:05:19.457Z,59.08
2022-10-14T21:07:57.843Z,58.98
2022-10-14T21:10:47.324Z,59.06
2022-10-14T21:13:34.262Z,59.06
2022-10-14T21:16:13.165Z,58.95
2022-10-14T21:19:09.982Z,59.24
2022-10-14T21:21:40.097Z,58.97
2022-10-14T21:24:29.207Z,59.03
2022-10-14T21:27:00.126Z,59.04
2022-10-14T21:29:31.078Z,58.91
2022-10-14T21:32:03.063Z,58.77
2022-10-14T21:34:38.141Z,58.88
2022-10-14T21:39:59.873Z,58.81
2022-10-14T21:42:55.324Z,58.70
2022-10-14T21:45:33.637Z,59.03
2022-10-14T21:48:12.355Z,59.07
2022-10-14T21:50:43.576Z,59.13
2022-10-14T21:53:26.105Z,59.19
2022-10-14T21:56:26.348Z,59.14
2022-10-14T21:59:01.405Z,59.01
2022-10-14T22:01:34.160Z,59.09
2022-10-14T22:04:19.643Z,58.88
2022-10-14T22:06:51.674Z,58.95
2022-10-14T22:09:22.014Z,58.80
2022-10-14T22:11:52.602Z,58.99
2022-10-14T22:14:30.854Z,59.04
2022-10-14T22:17:01.497Z,59.07
2022-10-14T22:19:53.239Z,58.96
2022-10-14T22:25:55.876Z,58.75
2022-10-14T22:28:36.256Z,58.66
2022-10-14T22:31:10.201Z,58.65
2022-10-14T22:34:01.701Z,58.86
2022-10-14T22:36:41.601Z,59.00
2022-10-14T22:39:19.775Z,58.97
2022-10-14T22:41:51.881Z,59.43
2022-10-14T22:44:25.753Z,59.54
2022-10-14T22:49:49.887Z,59.96
2022-10-14T22:52:22.339Z,60.22
2022-10-14T22:55:07.554Z,60.49
2022-10-14T22:57:58.006Z,60.69
2022-10-14T23:00:42.960Z,60.88
2022-10-14T23:03:17.665Z,60.77
2022-10-14T23:05:50.192Z,60.62
2022-10-14T23:08:26.628Z,60.70
2022-10-14T23:11:02.482Z,60.83
2022-10-14T23:13:33.271Z,60.97
2022-10-14T23:16:03.373Z,61.11
2022-10-14T23:18:39.720Z,61.33
2022-10-14T23:21:32.632Z,61.64
2022-10-14T23:24:05.553Z,61.91
2022-10-14T23:26:43.283Z,61.90
2022-10-14T23:29:26.488Z,62.06
2022-10-14T23:35:07.412Z,62.27
2022-10-14T23:37:43.222Z,62.51
2022-10-14T23:40:27.484Z,62.95
2022-10-14T23:42:58.441Z,63.33
2022-10-14T23:45:40.997Z,63.75
2022-10-14T23:48:36.587Z,63.54
2022-10-14T23:51:09.009Z,63.84
2022-10-14T23:53:46.096Z,64.24
2022-10-14T23:56:44.935Z,64.41
2022-10-14T23:59:23.014Z,64.65
